Time,TemperatureF,DewpointF,PressureIn,WindDirection,WindDirectionDegrees,WindSpeedMPH,WindSpeedGustMPH,Humidity,HourlyPrecipIn,Conditions,Clouds,dailyrainin,SoftwareType,DateUTC
2013-09-15 00:03:00,60.9,58.0,30.11,East,79,3.0,-999.0,89,-99.99,,,0.00,weatherlink.com 1.10,2013-09-15 05:03:00,
2013-09-15 00:18:00,61.1,58.0,30.11,East,79,2.0,-999.0,88,-99.99,,,0.00,weatherlink.com 1.10,2013-09-15 05:18:00,
2013-09-15 00:33:00,61.6,57.0,30.11,ENE,71,3.0,-999.0,86,-99.99,,,0.00,weatherlink.com 1.10,2013-09-15 05:33:00,
2013-09-15 00:48:00,62.3,57.0,30.11,ENE,74,4.0,-999.0,84,-99.99,,,0.00,weatherlink.com 1.10,2013-09-15 05:48:00,
2013-09-15 01:03:00,61.8,57.0,30.11,ENE,67,3.0,-999.0,84,-99.99,,,0.00,weatherlink.com 1.10,2013-09-15 06:03:00,
2013-09-15 01:18:00,61.2,57.0,30.11,ENE,67,2.0,-999.0,85,-99.99,,,0.00,weatherlink.com 1.10,2013-09-15 06:18:00,
2013-09-15 01:33:00,60.2,56.0,30.12,ENE,67,2.0,-999.0,87,-99.99,,,0.00,weatherlink.com 1.10,2013-09-15 06:33:00,
2013-09-15 01:48:00,60.3,57.0,30.11,ENE,67,2.0,-999.0,88,-99.99,,,0.00,weatherlink.com 1.10,2013-09-15 06:48:00,
2013-09-15 02:03:00,61.2,57.0,30.11,ENE,75,4.0,-999.0,85,-99.99,,,0.00,weatherlink.com 1.10,2013-09-15 07:03:00,
2013-09-15 02:18:00,61.3,57.0,30.11,ENE,76,4.0,-999.0,85,-99.99,,,0.00,weatherlink.com 1.10,2013-09-15 07:18:00,
2013-09-15 02:33:00,61.2,57.0,30.11,East,100,5.0,-999.0,85,-99.99,,,0.00,weatherlink.com 1.10,2013-09-15 07:33:00,
2013-09-15 02:48:00,61.1,57.0,30.11,East,84,1.0,-999.0,86,-99.99,,,0.00,weatherlink.com 1.10,2013-09-15 07:48:00,
2013-09-15 03:03:00,61.0,57.0,30.11,East,84,2.0,-999.0,86,-99.99,,,0.00,weatherlink.com 1.10,2013-09-15 08:03:00,
2013-09-15 03:18:00,60.0,56.0,30.11,East,84,4.0,-999.0,87,-99.99,,,0.00,weatherlink.com 1.10,2013-09-15 08:18:00,
2013-09-15 03:33:00,60.2,57.0,30.12,East,84,2.0,-999.0,88,-99.99,,,0.00,weatherlink.com 1.10,2013-09-15 08:33:00,
2013-09-15 03:48:00,60.8,57.0,30.12,East,92,2.0,-999.0,88,-99.99,,,0.00,weatherlink.com 1.10,2013-09-15 08:48:00,
2013-09-15 04:03:00,60.9,57.0,30.12,East,92,4.0,-999.0,87,-99.99,,,0.00,weatherlink.com 1.10,2013-09-15 09:03:00,
2013-09-15 04:18:00,60.8,57.0,30.12,ENE,71,2.0,-999.0,88,-99.99,,,0.00,weatherlink.com 1.10,2013-09-15 09:18:00,
2013-09-15 04:33:00,60.9,57.0,30.12,East,81,3.0,-999.0,88,-99.99,,,0.00,weatherlink.com 1.10,2013-09-15 09:33:00,
2013-09-15 04:48:00,60.9,58.0,30.13,East,87,2.0,-999.0,89,-99.99,,,0.00,weatherlink.com 1.10,2013-09-15 09:48:00,
2013-09-15 05:03:00,61.0,58.0,30.13,East,88,3.0,-999.0,89,-99.99,,,0.00,weatherlink.com 1.10,2013-09-15 10:03:00,
2013-09-15 05:18:00,60.6,57.0,30.13,East,90,4.0,-999.0,89,-99.99,,,0.00,weatherlink.com 1.10,2013-09-15 10:18:00,
2013-09-15 05:33:00,60.4,58.0,30.13,East,90,4.0,-999.0,90,-99.99,,,0.00,weatherlink.com 1.10,2013-09-15 10:33:00,
2013-09-15 05:48:00,60.5,58.0,30.14,East,90,4.0,-999.0,90,-99.99,,,0.00,weatherlink.com 1.10,2013-09-15 10:48:00,
2013-09-15 06:03:00,60.6,58.0,30.14,East,90,2.0,-999.0,90,-99.99,,,0.00,weatherlink.com 1.10,2013-09-15 11:03:00,
2013-09-15 06:18:00,60.3,57.0,30.14,East,81,3.0,-999.0,90,-99.99,,,0.00,weatherlink.com 1.10,2013-09-15 11:18:00,
2013-09-15 06:33:00,60.3,58.0,30.15,East,94,6.0,-999.0,91,-99.99,,,0.00,weatherlink.com 1.10,2013-09-15 11:33:00,
2013-09-15 06:48:00,60.8,58.0,30.16,East,89,4.0,-999.0,91,-99.99,,,0.00,weatherlink.com 1.10,2013-09-15 11:48:00,
2013-09-15 07:03:00,61.5,59.0,30.15,ESE,104,2.0,-999.0,91,-99.99,,,0.00,weatherlink.com 1.10,2013-09-15 12:03:00,
2013-09-15 07:18:00,62.1,59.0,30.16,East,92,5.0,-999.0,90,-99.99,,,0.00,weatherlink.com 1.10,2013-09-15 12:18:00,
2013-09-15 07:33:00,63.0,60.0,30.16,ENE,73,4.0,-999.0,89,-99.99,,,0.00,weatherlink.com 1.10,2013-09-15 12:33:00,
2013-09-15 07:48:00,64.0,61.0,30.16,East,98,4.0,-999.0,89,-99.99,,,0.00,weatherlink.com 1.10,2013-09-15 12:48:00,
2013-09-15 08:03:00,64.9,61.0,30.16,ESE,107,8.0,-999.0,88,-99.99,,,0.00,weatherlink.com 1.10,2013-09-15 13:03:00,
2013-09-15 08:18:00,65.5,62.0,30.16,SE,129,8.0,-999.0,89,-99.99,,,0.00,weatherlink.com 1.10,2013-09-15 13:18:00,
2013-09-15 08:33:00,66.3,63.0,30.17,SE,130,8.0,-999.0,88,-99.99,,,0.00,weatherlink.com 1.10,2013-09-15 13:33:00,
2013-09-15 08:48:00,66.3,63.0,30.17,ESE,115,9.0,-999.0,89,-99.99,,,0.00,weatherlink.com 1.10,2013-09-15 13:48:00,
2013-09-15 09:03:00,66.0,63.0,30.18,SE,130,11.0,-999.0,90,-99.99,,,0.00,weatherlink.com 1.10,2013-09-15 14:03:00,
2013-09-15 09:18:00,66.1,64.0,30.18,SSE,147,11.0,-999.0,91,-99.99,,,0.00,weatherlink.com 1.10,2013-09-15 14:18:00,
2013-09-15 09:33:00,66.4,64.0,30.18,SE,142,8.0,-999.0,91,-99.99,,,0.00,weatherlink.com 1.10,2013-09-15 14:33:00,
2013-09-15 09:48:00,67.1,64.0,30.18,ESE,114,5.0,-999.0,90,-99.99,,,0.00,weatherlink.com 1.10,2013-09-15 14:48:00,
2013-09-15 10:04:00,67.7,64.0,30.18,SE,132,8.0,-999.0,89,-99.99,,,0.00,weatherlink.com 1.10,2013-09-15 15:04:00,
2013-09-15 10:19:00,68.3,65.0,30.18,East,93,7.0,-999.0,88,-99.99,,,0.00,weatherlink.com 1.10,2013-09-15 15:19:00,
2013-09-15 10:49:00,68.9,65.0,30.18,ESE,119,9.0,-999.0,87,-99.99,,,0.00,weatherlink.com 1.10,2013-09-15 15:49:00,
2013-09-15 11:04:00,70.4,66.0,30.18,SE,136,9.0,-999.0,85,-99.99,,,0.00,weatherlink.com 1.10,2013-09-15 16:04:00,
2013-09-15 11:19:00,70.5,66.0,30.18,South,171,8.0,-999.0,84,-99.99,,,0.00,weatherlink.com 1.10,2013-09-15 16:19:00,
2013-09-15 11:34:00,71.7,66.0,30.18,ESE,111,5.0,-999.0,82,-99.99,,,0.00,weatherlink.com 1.10,2013-09-15 16:34:00,
2013-09-15 11:49:00,72.4,66.0,30.18,South,179,0.0,-999.0,81,-99.99,,,0.00,weatherlink.com 1.10,2013-09-15 16:49:00,
2013-09-15 12:04:00,73.8,66.0,30.17,SE,126,1.0,-999.0,76,-99.99,,,0.00,weatherlink.com 1.10,2013-09-15 17:04:00,
2013-09-15 12:19:00,74.9,66.0,30.17,South,170,5.0,-999.0,73,-99.99,,,0.00,weatherlink.com 1.10,2013-09-15 17:19:00,
2013-09-15 12:34:00,75.6,66.0,30.16,SSE,158,6.0,-999.0,71,-99.99,,,0.00,weatherlink.com 1.10,2013-09-15 17:34:00,
2013-09-15 12:49:00,75.9,65.0,30.16,SE,134,9.0,-999.0,70,-99.99,,,0.00,weatherlink.com 1.10,2013-09-15 17:49:00,
2013-09-15 13:04:00,77.1,65.0,30.16,SSE,159,9.0,-999.0,67,-99.99,,,0.00,weatherlink.com 1.10,2013-09-15 18:04:00,
2013-09-15 13:19:00,78.0,64.0,30.15,SE,146,2.0,-999.0,63,-99.99,,,0.00,weatherlink.com 1.10,2013-09-15 18:19:00,
2013-09-15 13:34:00,78.9,64.0,30.14,SSE,167,7.0,-999.0,61,-99.99,,,0.00,weatherlink.com 1.10,2013-09-15 18:34:00,
2013-09-15 13:49:00,79.1,62.0,30.14,SSW,201,3.0,-999.0,57,-99.99,,,0.00,weatherlink.com 1.10,2013-09-15 18:49:00,
2013-09-15 14:04:00,79.6,62.0,30.14,SW,230,3.0,-999.0,56,-99.99,,,0.00,weatherlink.com 1.10,2013-09-15 19:04:00,
2013-09-15 14:19:00,79.6,61.0,30.14,SSW,209,9.0,-999.0,54,-99.99,,,0.00,weatherlink.com 1.10,2013-09-15 19:19:00,
2013-09-15 14:34:00,79.9,62.0,30.13,SSW,204,15.0,-999.0,55,-99.99,,,0.00,weatherlink.com 1.10,2013-09-15 19:34:00,
2013-09-15 14:49:00,80.1,62.0,30.13,South,173,10.0,-999.0,54,-99.99,,,0.00,weatherlink.com 1.10,2013-09-15 19:49:00,
2013-09-15 15:04:00,80.9,62.0,30.13,SSW,205,4.0,-999.0,52,-99.99,,,0.00,weatherlink.com 1.10,2013-09-15 20:04:00,
2013-09-15 15:19:00,80.5,61.0,30.13,WSW,238,9.0,-999.0,51,-99.99,,,0.00,weatherlink.com 1.10,2013-09-15 20:19:00,
2013-09-15 15:34:00,80.6,60.0,30.13,SSW,196,8.0,-999.0,50,-99.99,,,0.00,weatherlink.com 1.10,2013-09-15 20:34:00,
2013-09-15 15:49:00,81.3,61.0,30.12,WSW,239,6.0,-999.0,50,-99.99,,,0.00,weatherlink.com 1.10,2013-09-15 20:49:00,
2013-09-15 16:04:00,81.2,61.0,30.13,WSW,252,3.0,-999.0,50,-99.99,,,0.00,weatherlink.com 1.10,2013-09-15 21:04:00,
2013-09-15 16:19:00,80.8,61.0,30.13,SW,226,4.0,-999.0,52,-99.99,,,0.00,weatherlink.com 1.10,2013-09-15 21:19:00,
2013-09-15 16:34:00,80.7,61.0,30.13,WSW,241,5.0,-999.0,52,-99.99,,,0.00,weatherlink.com 1.10,2013-09-15 21:34:00,
2013-09-15 16:49:00,80.5,62.0,30.13,WSW,247,0.0,-999.0,53,-99.99,,,0.00,weatherlink.com 1.10,2013-09-15 21:49:00,
2013-09-15 17:04:00,80.2,63.0,30.13,SW,219,0.0,-999.0,56,-99.99,,,0.00,weatherlink.com 1.10,2013-09-15 22:04:00,
2013-09-15 17:19:00,81.0,63.0,30.13,SSW,199,5.0,-999.0,54,-99.99,,,0.00,weatherlink.com 1.10,2013-09-15 22:19:00,
2013-09-15 17:34:00,80.6,63.0,30.13,South,188,0.0,-999.0,55,-99.99,,,0.00,weatherlink.com 1.10,2013-09-15 22:34:00,
2013-09-15 17:49:00,80.1,63.0,30.13,South,188,0.0,-999.0,57,-99.99,,,0.00,weatherlink.com 1.10,2013-09-15 22:49:00,
2013-09-15 18:04:00,79.4,63.0,30.13,South,188,0.0,-999.0,58,-99.99,,,0.00,weatherlink.com 1.10,2013-09-15 23:04:00,
2013-09-15 18:19:00,78.1,62.0,30.13,South,188,0.0,-999.0,59,-99.99,,,0.00,weatherlink.com 1.10,2013-09-15 23:19:00,
2013-09-15 18:34:00,76.6,63.0,30.13,South,188,0.0,-999.0,64,-99.99,,,0.00,weatherlink.com 1.10,2013-09-15 23:34:00,
2013-09-15 18:49:00,75.4,63.0,30.13,South,188,0.0,-999.0,66,-99.99,,,0.00,weatherlink.com 1.10,2013-09-15 23:49:00,
2013-09-15 19:04:00,74.4,63.0,30.13,South,188,0.0,-999.0,67,-99.99,,,0.00,weatherlink.com 1.10,2013-09-16 00:04:00,
2013-09-15 19:19:00,73.6,63.0,30.13,South,188,0.0,-999.0,70,-99.99,,,0.00,weatherlink.com 1.10,2013-09-16 00:19:00,
2013-09-15 19:34:00,72.8,64.0,30.13,South,188,0.0,-999.0,75,-99.99,,,0.00,weatherlink.com 1.10,2013-09-16 00:34:00,
2013-09-15 19:49:00,72.4,65.0,30.14,South,188,0.0,-999.0,77,-99.99,,,0.00,weatherlink.com 1.10,2013-09-16 00:49:00,
2013-09-15 20:04:00,71.9,65.0,30.14,South,188,0.0,-999.0,78,-99.99,,,0.00,weatherlink.com 1.10,2013-09-16 01:04:00,
2013-09-15 20:19:00,71.0,65.0,30.14,South,188,0.0,-999.0,81,-99.99,,,0.00,weatherlink.com 1.10,2013-09-16 01:19:00,
2013-09-15 20:34:00,70.1,64.0,30.15,South,188,0.0,-999.0,82,-99.99,,,0.00,weatherlink.com 1.10,2013-09-16 01:34:00,
2013-09-15 20:49:00,69.4,64.0,30.15,South,188,0.0,-999.0,83,-99.99,,,0.00,weatherlink.com 1.10,2013-09-16 01:49:00,
2013-09-15 21:04:00,69.6,63.0,30.16,South,188,0.0,-999.0,79,-99.99,,,0.00,weatherlink.com 1.10,2013-09-16 02:04:00,
2013-09-15 21:19:00,69.4,63.0,30.16,South,188,0.0,-999.0,81,-99.99,,,0.00,weatherlink.com 1.10,2013-09-16 02:19:00,
2013-09-15 21:34:00,68.4,63.0,30.16,South,188,0.0,-999.0,83,-99.99,,,0.00,weatherlink.com 1.10,2013-09-16 02:34:00,
2013-09-15 21:49:00,67.5,63.0,30.17,South,188,0.0,-999.0,84,-99.99,,,0.00,weatherlink.com 1.10,2013-09-16 02:49:00,
2013-09-15 22:04:00,66.8,63.0,30.16,South,188,0.0,-999.0,86,-99.99,,,0.00,weatherlink.com 1.10,2013-09-16 03:04:00,
2013-09-15 22:19:00,66.6,63.0,30.16,South,188,0.0,-999.0,87,-99.99,,,0.00,weatherlink.com 1.10,2013-09-16 03:19:00,
2013-09-15 22:34:00,66.3,62.0,30.16,SE,132,1.0,-999.0,87,-99.99,,,0.00,weatherlink.com 1.10,2013-09-16 03:34:00,
2013-09-15 22:49:00,65.9,62.0,30.16,SE,132,0.0,-999.0,87,-99.99,,,0.00,weatherlink.com 1.10,2013-09-16 03:49:00,
2013-09-15 23:04:00,66.5,62.0,30.15,SE,132,0.0,-999.0,84,-99.99,,,0.00,weatherlink.com 1.10,2013-09-16 04:04:00,
2013-09-15 23:19:00,66.3,61.0,30.16,SE,132,0.0,-999.0,84,-99.99,,,0.00,weatherlink.com 1.10,2013-09-16 04:19:00,
2013-09-15 23:35:00,65.7,62.0,30.16,SE,132,0.0,-999.0,86,-99.99,,,0.00,weatherlink.com 1.10,2013-09-16 04:35:00,
2013-09-15 23:50:00,64.5,61.0,30.16,SE,132,0.0,-999.0,88,-99.99,,,0.00,weatherlink.com 1.10,2013-09-16 04:50:00,